Time;durP1;ratioP1;P1;durP2;ratioP2;P2;SDS_P1;SDS_P2;PMS_P1;PMS_P2;Temp;Humidity;BMP_temperature;BMP_pressure;BME280_temperature;BME280_humidity;BME280_pressure;Samples;Min_cycle;Max_cycle;Signal;HPM_P1;HPM_P2
2021/09/20 00:00:13;;;;;;;5.13;2.75;;;;;;;;;;5057346;28;20025;-65
2021/09/20 00:02:38;;;;;;;3.95;2.53;;;;;;;;;;5056671;28;20401;-65
2021/09/20 00:05:04;;;;;;;4.00;2.65;;;;;;;;;;5060523;28;20085;-65
2021/09/20 00:07:30;;;;;;;3.67;2.72;;;;;;;;;;5055402;28;20025;-65
2021/09/20 00:09:55;;;;;;;4.25;2.80;;;;;;;;;;5057299;28;20062;-66
2021/09/20 00:12:20;;;;;;;4.28;3.03;;;;;;;;;;5054571;28;20037;-65
2021/09/20 00:14:45;;;;;;;4.43;3.22;;;;;;;;;;5057201;28;20591;-65
2021/09/20 00:17:10;;;;;;;3.95;3.00;;;;;;;;;;5048548;28;20032;-65
2021/09/20 00:19:35;;;;;;;4.60;3.20;;;;;;;;;;5053001;28;20025;-66
2021/09/20 00:22:01;;;;;;;4.22;3.33;;;;;;;;;;5060462;28;20026;-64
2021/09/20 00:24:26;;;;;;;4.10;3.05;;;;;;;;;;5048465;28;20021;-65
2021/09/20 00:26:51;;;;;;;4.10;2.78;;;;;;;;;;5053720;28;20032;-64
2021/09/20 00:29:16;;;;;;;4.03;2.88;;;;;;;;;;5054997;28;20685;-66
2021/09/20 00:31:42;;;;;;;3.78;2.95;;;;;;;;;;5048179;28;20036;-65
2021/09/20 00:34:07;;;;;;;3.50;2.67;;;;;;;;;;5056610;28;20081;-65
2021/09/20 00:36:32;;;;;;;3.65;2.72;;;;;;;;;;5054595;28;20120;-65
2021/09/20 00:38:57;;;;;;;5.00;3.50;;;;;;;;;;5052998;28;20078;-65
2021/09/20 00:41:22;;;;;;;4.10;3.22;;;;;;;;;;5062638;28;20021;-66
2021/09/20 00:43:47;;;;;;;5.57;3.10;;;;;;;;;;5060604;28;20463;-65
2021/09/20 00:46:13;;;;;;;6.50;3.33;;;;;;;;;;5060372;28;20087;-64
2021/09/20 00:48:39;;;;;;;4.20;3.42;;;;;;;;;;5067053;28;20132;-68
2021/09/20 00:51:04;;;;;;;5.10;3.78;;;;;;;;;;5066005;28;20168;-65
2021/09/20 00:53:29;;;;;;;4.88;3.40;;;;;;;;;;5058692;28;20047;-65
2021/09/20 00:55:55;;;;;;;4.78;3.78;;;;;;;;;;5056566;28;20026;-66
2021/09/20 00:58:20;;;;;;;5.10;4.30;;;;;;;;;;5058959;28;20016;-65
2021/09/20 01:00:45;;;;;;;4.88;3.58;;;;;;;;;;5059235;28;20480;-65
2021/09/20 01:03:11;;;;;;;5.70;4.28;;;;;;;;;;5060275;28;20021;-65
2021/09/20 01:05:36;;;;;;;5.50;4.28;;;;;;;;;;5051576;28;20040;-65
2021/09/20 01:08:01;;;;;;;4.95;3.88;;;;;;;;;;5064064;28;20020;-65
2021/09/20 01:10:26;;;;;;;4.75;3.72;;;;;;;;;;5054969;28;20033;-65
2021/09/20 01:12:51;;;;;;;4.80;3.83;;;;;;;;;;5053494;28;20447;-65
2021/09/20 01:15:16;;;;;;;6.05;4.95;;;;;;;;;;5065009;28;20036;-65
2021/09/20 01:17:42;;;;;;;5.65;4.80;;;;;;;;;;5062293;28;20525;-64
2021/09/20 01:20:07;;;;;;;6.25;4.35;;;;;;;;;;5066695;28;20036;-65
2021/09/20 01:22:34;;;;;;;4.38;3.25;;;;;;;;;;5057190;28;20021;-65
2021/09/20 01:24:59;;;;;;;5.60;3.83;;;;;;;;;;5060871;28;20047;-64
2021/09/20 01:27:25;;;;;;;5.28;4.10;;;;;;;;;;5061543;28;20025;-65
2021/09/20 01:29:50;;;;;;;4.93;4.03;;;;;;;;;;5061762;28;20037;-65
2021/09/20 01:32:16;;;;;;;7.38;4.43;;;;;;;;;;5058923;28;20072;-64
2021/09/20 01:34:41;;;;;;;5.15;3.92;;;;;;;;;;5054521;28;20021;-64
2021/09/20 01:37:06;;;;;;;5.55;4.40;;;;;;;;;;5062201;28;20092;-65
2021/09/20 01:39:33;;;;;;;6.57;4.00;;;;;;;;;;5055052;28;20032;-65
2021/09/20 01:41:58;;;;;;;4.97;4.20;;;;;;;;;;5058102;28;20032;-65
2021/09/20 01:44:24;;;;;;;5.70;3.85;;;;;;;;;;5058039;28;20025;-64
2021/09/20 01:46:51;;;;;;;5.72;4.03;;;;;;;;;;5055145;28;20017;-65
2021/09/20 01:49:17;;;;;;;4.57;3.67;;;;;;;;;;5058207;28;20166;-64
2021/09/20 01:51:42;;;;;;;4.47;3.60;;;;;;;;;;5055325;28;20544;-65
2021/09/20 01:54:07;;;;;;;4.90;3.97;;;;;;;;;;5056552;28;20025;-65
2021/09/20 01:56:32;;;;;;;6.95;4.40;;;;;;;;;;5060765;28;20072;-65
2021/09/20 01:58:59;;;;;;;4.88;3.50;;;;;;;;;;5057390;28;20020;-65
2021/09/20 02:01:24;;;;;;;4.93;3.92;;;;;;;;;;5061489;28;20028;-65
2021/09/20 02:03:51;;;;;;;5.00;4.00;;;;;;;;;;5066396;28;20048;-65
2021/09/20 02:06:16;;;;;;;4.88;3.40;;;;;;;;;;5061790;28;20021;-64
2021/09/20 02:08:41;;;;;;;8.10;3.90;;;;;;;;;;5061664;28;20021;-64
2021/09/20 02:11:07;;;;;;;4.38;3.35;;;;;;;;;;5057465;28;20495;-65
2021/09/20 02:13:32;;;;;;;5.43;4.05;;;;;;;;;;5058074;28;20033;-64
2021/09/20 02:15:57;;;;;;;5.20;3.78;;;;;;;;;;5056262;28;20044;-66
2021/09/20 02:18:22;;;;;;;6.00;3.88;;;;;;;;;;5052053;28;20540;-65
2021/09/20 02:20:48;;;;;;;4.13;3.40;;;;;;;;;;5059848;28;20031;-65
2021/09/20 02:23:14;;;;;;;4.50;3.08;;;;;;;;;;5059331;28;20020;-65
2021/09/20 02:25:40;;;;;;;3.92;3.25;;;;;;;;;;5056644;28;20021;-65
2021/09/20 02:28:05;;;;;;;4.40;3.40;;;;;;;;;;5051491;28;20433;-65
2021/09/20 02:30:31;;;;;;;8.63;4.00;;;;;;;;;;5052928;28;20103;-65
2021/09/20 02:32:56;;;;;;;4.70;3.28;;;;;;;;;;5059613;28;20056;-65
2021/09/20 02:35:21;;;;;;;4.63;3.05;;;;;;;;;;5053139;28;20064;-65
2021/09/20 02:37:46;;;;;;;4.43;3.25;;;;;;;;;;5064970;28;20075;-65
2021/09/20 02:40:12;;;;;;;4.15;3.25;;;;;;;;;;5062470;28;20384;-65
2021/09/20 02:42:37;;;;;;;6.30;3.72;;;;;;;;;;5065285;28;20060;-64
2021/09/20 02:45:03;;;;;;;8.35;5.72;;;;;;;;;;5056462;28;20120;-65
2021/09/20 02:47:28;;;;;;;9.82;6.55;;;;;;;;;;5052748;28;20040;-65
2021/09/20 02:49:53;;;;;;;7.45;6.28;;;;;;;;;;5057160;28;20021;-65
2021/09/20 02:52:19;;;;;;;8.35;6.63;;;;;;;;;;5054850;28;20635;-65
2021/09/20 02:54:44;;;;;;;10.40;6.57;;;;;;;;;;5050917;28;20431;-65
2021/09/20 02:57:09;;;;;;;7.55;6.38;;;;;;;;;;5059916;28;20381;-65
2021/09/20 02:59:34;;;;;;;10.07;7.95;;;;;;;;;;5061308;28;20028;-65
2021/09/20 03:01:59;;;;;;;9.52;7.57;;;;;;;;;;5057150;28;20032;-65
2021/09/20 03:04:25;;;;;;;9.23;7.22;;;;;;;;;;5062097;28;20016;-65
2021/09/20 03:06:50;;;;;;;10.85;8.50;;;;;;;;;;5055470;28;20510;-64
2021/09/20 03:09:15;;;;;;;11.93;8.85;;;;;;;;;;5058633;28;20032;-65
2021/09/20 03:11:40;;;;;;;12.93;8.52;;;;;;;;;;5061996;28;20051;-65
2021/09/20 03:14:05;;;;;;;10.80;8.77;;;;;;;;;;5049761;28;20044;-65
2021/09/20 03:16:31;;;;;;;10.75;8.27;;;;;;;;;;5052252;28;20909;-64
2021/09/20 03:18:56;;;;;;;10.65;8.70;;;;;;;;;;5056936;28;20024;-65
2021/09/20 03:21:23;;;;;;;12.15;9.15;;;;;;;;;;5060495;28;20095;-64
2021/09/20 03:23:49;;;;;;;11.68;8.95;;;;;;;;;;5062947;28;20081;-66
2021/09/20 03:26:14;;;;;;;12.32;9.38;;;;;;;;;;5065082;28;20040;-65
2021/09/20 03:28:39;;;;;;;11.73;9.25;;;;;;;;;;5053912;28;20033;-65
2021/09/20 03:31:04;;;;;;;11.70;9.23;;;;;;;;;;5056122;28;20025;-67
2021/09/20 03:33:29;;;;;;;12.90;9.30;;;;;;;;;;5064766;28;20291;-65
2021/09/20 03:35:54;;;;;;;11.10;8.90;;;;;;;;;;5056838;28;20063;-65
2021/09/20 03:38:20;;;;;;;12.07;9.30;;;;;;;;;;5051668;28;20029;-65
2021/09/20 03:40:45;;;;;;;13.30;9.77;;;;;;;;;;5064061;28;20766;-65
2021/09/20 03:43:10;;;;;;;12.98;9.93;;;;;;;;;;5058628;28;20279;-66
2021/09/20 03:45:35;;;;;;;12.45;9.30;;;;;;;;;;5055017;28;20033;-65
2021/09/20 03:48:00;;;;;;;12.60;10.13;;;;;;;;;;5058979;28;20078;-65
2021/09/20 03:50:25;;;;;;;13.93;10.35;;;;;;;;;;5058450;28;20111;-65
2021/09/20 03:52:51;;;;;;;15.50;10.48;;;;;;;;;;5056663;28;20078;-65
2021/09/20 03:55:16;;;;;;;11.85;9.73;;;;;;;;;;5052911;28;20048;-66
2021/09/20 03:57:41;;;;;;;14.30;11.38;;;;;;;;;;5062295;28;20044;-65
2021/09/20 04:00:07;;;;;;;16.40;11.35;;;;;;;;;;5059874;28;20093;-65
2021/09/20 04:02:32;;;;;;;15.93;11.63;;;;;;;;;;5059826;28;20059;-65
2021/09/20 04:04:57;;;;;;;13.75;10.18;;;;;;;;;;5058309;28;20368;-65
2021/09/20 04:07:22;;;;;;;15.27;11.88;;;;;;;;;;5053947;28;20120;-65
2021/09/20 04:09:48;;;;;;;16.67;11.93;;;;;;;;;;5057695;28;20048;-65
2021/09/20 04:12:13;;;;;;;17.98;12.02;;;;;;;;;;5053561;28;20090;-64
2021/09/20 04:14:38;;;;;;;17.50;12.07;;;;;;;;;;5067212;28;20375;-65
2021/09/20 04:17:07;;;;;;;17.38;12.18;;;;;;;;;;5063109;28;20395;-65
2021/09/20 04:19:32;;;;;;;16.63;11.85;;;;;;;;;;5058091;28;20017;-66
2021/09/20 04:21:58;;;;;;;17.10;12.25;;;;;;;;;;5063468;28;20032;-65
2021/09/20 04:24:23;;;;;;;17.50;12.52;;;;;;;;;;5062239;28;20017;-65
2021/09/20 04:26:48;;;;;;;15.05;12.18;;;;;;;;;;5053871;28;20480;-65
2021/09/20 04:29:13;;;;;;;16.65;12.10;;;;;;;;;;5057790;28;20020;-65
2021/09/20 04:31:38;;;;;;;17.90;13.30;;;;;;;;;;5060686;28;20520;-65
2021/09/20 04:34:04;;;;;;;16.50;11.95;;;;;;;;;;5068641;28;20020;-66
2021/09/20 04:36:29;;;;;;;17.75;12.48;;;;;;;;;;5061528;28;20029;-65
2021/09/20 04:38:54;;;;;;;17.13;11.68;;;;;;;;;;5057596;28;20020;-66
2021/09/20 04:41:19;;;;;;;18.35;12.82;;;;;;;;;;5061098;28;20472;-66
2021/09/20 04:43:44;;;;;;;16.52;11.90;;;;;;;;;;5058550;28;20082;-66
2021/09/20 04:46:10;;;;;;;17.80;12.00;;;;;;;;;;5057601;28;20122;-65
2021/09/20 04:48:35;;;;;;;19.73;12.35;;;;;;;;;;5060160;28;20029;-65
2021/09/20 04:51:00;;;;;;;17.23;12.02;;;;;;;;;;5059431;28;20052;-64
2021/09/20 04:53:25;;;;;;;17.33;12.40;;;;;;;;;;5060034;28;20117;-65
2021/09/20 04:55:51;;;;;;;17.13;12.55;;;;;;;;;;5062710;28;20025;-61
2021/09/20 04:58:16;;;;;;;15.48;11.43;;;;;;;;;;5054816;28;20108;-60
2021/09/20 05:00:41;;;;;;;15.80;11.60;;;;;;;;;;5063498;28;20025;-61
2021/09/20 05:03:07;;;;;;;18.48;11.73;;;;;;;;;;5061440;28;20032;-61
2021/09/20 05:05:32;;;;;;;14.90;11.57;;;;;;;;;;5066000;28;20495;-60
2021/09/20 05:07:58;;;;;;;14.93;11.73;;;;;;;;;;5068208;28;20103;-60
2021/09/20 05:10:23;;;;;;;18.25;12.15;;;;;;;;;;5052946;28;20420;-61
2021/09/20 05:12:48;;;;;;;17.40;12.63;;;;;;;;;;5058517;28;20139;-60
2021/09/20 05:15:15;;;;;;;17.08;11.80;;;;;;;;;;5059667;28;20020;-59
2021/09/20 05:17:40;;;;;;;18.45;12.65;;;;;;;;;;5055273;28;20075;-61
2021/09/20 05:20:06;;;;;;;19.00;13.48;;;;;;;;;;5056679;28;20021;-60
2021/09/20 05:22:31;;;;;;;15.77;11.23;;;;;;;;;;5067218;28;20021;-59
2021/09/20 05:24:56;;;;;;;16.63;12.57;;;;;;;;;;5053126;28;20032;-60
2021/09/20 05:27:21;;;;;;;15.77;12.30;;;;;;;;;;5057644;28;20024;-61
2021/09/20 05:29:47;;;;;;;17.88;12.38;;;;;;;;;;5055424;28;20052;-61
2021/09/20 05:32:12;;;;;;;16.05;12.02;;;;;;;;;;5056807;28;20497;-60
2021/09/20 05:34:37;;;;;;;18.15;11.73;;;;;;;;;;5063150;28;20025;-61
2021/09/20 05:37:02;;;;;;;15.88;11.35;;;;;;;;;;5065492;28;20082;-61
2021/09/20 05:39:27;;;;;;;17.65;12.27;;;;;;;;;;5057889;28;20020;-62
2021/09/20 05:41:52;;;;;;;17.95;12.70;;;;;;;;;;5051862;28;20025;-60
2021/09/20 05:44:18;;;;;;;14.50;11.10;;;;;;;;;;5050843;28;20017;-60
2021/09/20 05:46:43;;;;;;;16.85;11.30;;;;;;;;;;5059863;28;20036;-60
2021/09/20 05:49:08;;;;;;;17.15;12.10;;;;;;;;;;5070207;28;20031;-62
2021/09/20 05:51:33;;;;;;;17.20;11.57;;;;;;;;;;5070389;28;20059;-61
2021/09/20 05:53:59;;;;;;;16.75;12.80;;;;;;;;;;5061856;28;20344;-61
2021/09/20 05:56:24;;;;;;;17.52;12.85;;;;;;;;;;5056687;28;20582;-61
2021/09/20 05:58:49;;;;;;;17.25;12.88;;;;;;;;;;5051070;28;20615;-61
2021/09/20 06:01:14;;;;;;;18.48;12.45;;;;;;;;;;5053893;28;20477;-61
2021/09/20 06:03:39;;;;;;;19.23;13.98;;;;;;;;;;5050464;28;20177;-61
2021/09/20 06:06:04;;;;;;;19.58;13.65;;;;;;;;;;5066228;28;20033;-61
2021/09/20 06:08:29;;;;;;;17.13;12.32;;;;;;;;;;5069766;28;20064;-61
2021/09/20 06:10:55;;;;;;;17.25;12.43;;;;;;;;;;5064106;28;20476;-61
2021/09/20 06:13:20;;;;;;;18.23;13.27;;;;;;;;;;5058502;28;20083;-61
2021/09/20 06:15:45;;;;;;;18.83;12.73;;;;;;;;;;5056511;28;20561;-60
2021/09/20 06:18:10;;;;;;;19.55;13.73;;;;;;;;;;5065047;28;20051;-63
2021/09/20 06:20:36;;;;;;;17.90;12.48;;;;;;;;;;5063225;28;20026;-62
2021/09/20 06:23:01;;;;;;;17.92;12.50;;;;;;;;;;5069044;28;20024;-61
2021/09/20 06:25:27;;;;;;;18.33;11.98;;;;;;;;;;5067589;28;20192;-61
2021/09/20 06:27:52;;;;;;;18.40;12.93;;;;;;;;;;5067685;28;20016;-61
2021/09/20 06:30:18;;;;;;;18.50;11.80;;;;;;;;;;5069395;28;20052;-61
2021/09/20 06:32:43;;;;;;;16.33;10.90;;;;;;;;;;5070000;28;20416;-61
2021/09/20 06:35:08;;;;;;;18.17;11.82;;;;;;;;;;5049362;28;20071;-62
2021/09/20 06:37:34;;;;;;;16.42;10.73;;;;;;;;;;5057598;28;20107;-62
2021/09/20 06:39:59;;;;;;;15.20;10.02;;;;;;;;;;5050602;28;20020;-61
2021/09/20 06:42:24;;;;;;;15.43;10.73;;;;;;;;;;5050425;28;20051;-61
2021/09/20 06:44:51;;;;;;;15.07;10.55;;;;;;;;;;5050463;28;20020;-61
2021/09/20 06:47:19;;;;;;;17.50;10.15;;;;;;;;;;5052253;28;20025;-62
2021/09/20 06:49:44;;;;;;;18.08;11.52;;;;;;;;;;5069284;28;20016;-60
2021/09/20 06:52:10;;;;;;;16.13;11.90;;;;;;;;;;5069084;28;20398;-61
2021/09/20 06:54:35;;;;;;;18.40;11.20;;;;;;;;;;5069349;28;20472;-61
2021/09/20 06:57:00;;;;;;;16.55;10.68;;;;;;;;;;5069347;28;20051;-61
2021/09/20 06:59:25;;;;;;;16.63;11.10;;;;;;;;;;5060384;28;20392;-60
2021/09/20 07:01:50;;;;;;;18.58;12.05;;;;;;;;;;5070068;28;20024;-61
2021/09/20 07:04:15;;;;;;;15.68;11.07;;;;;;;;;;5052357;28;20491;-61
2021/09/20 07:06:41;;;;;;;21.33;13.18;;;;;;;;;;5050060;28;20032;-61
2021/09/20 07:09:06;;;;;;;20.40;12.93;;;;;;;;;;5054976;28;20414;-60
2021/09/20 07:11:31;;;;;;;19.25;12.40;;;;;;;;;;5068859;28;20020;-62
2021/09/20 07:13:56;;;;;;;17.25;12.25;;;;;;;;;;5068784;28;20047;-61
2021/09/20 07:16:21;;;;;;;18.55;12.93;;;;;;;;;;5068644;28;20060;-60
2021/09/20 07:18:47;;;;;;;17.52;12.40;;;;;;;;;;5065056;28;20475;-60
2021/09/20 07:21:12;;;;;;;18.88;13.10;;;;;;;;;;5050033;28;20028;-61
2021/09/20 07:23:37;;;;;;;17.80;12.25;;;;;;;;;;5049588;28;20016;-60
2021/09/20 07:26:03;;;;;;;18.77;12.55;;;;;;;;;;5049404;28;20547;-61
2021/09/20 07:28:28;;;;;;;17.27;11.70;;;;;;;;;;5048906;28;20017;-60
2021/09/20 07:30:53;;;;;;;16.67;11.48;;;;;;;;;;5063385;28;20032;-60
2021/09/20 07:33:18;;;;;;;20.08;11.68;;;;;;;;;;5055814;28;20443;-61
2021/09/20 07:35:44;;;;;;;17.05;12.13;;;;;;;;;;5049316;28;20041;-60
2021/09/20 07:38:09;;;;;;;17.25;11.18;;;;;;;;;;5049104;28;20472;-61
2021/09/20 07:40:34;;;;;;;17.20;10.50;;;;;;;;;;5052547;28;20080;-60
2021/09/20 07:43:00;;;;;;;16.80;11.60;;;;;;;;;;5049614;28;20445;-60
2021/09/20 07:45:25;;;;;;;15.45;11.20;;;;;;;;;;5049007;28;20036;-61
2021/09/20 07:47:51;;;;;;;17.05;10.68;;;;;;;;;;5049410;28;20025;-61
2021/09/20 07:50:18;;;;;;;14.90;10.07;;;;;;;;;;5050134;28;20034;-61
2021/09/20 07:52:44;;;;;;;14.60;9.90;;;;;;;;;;5052056;28;20110;-60
2021/09/20 07:55:10;;;;;;;17.70;11.82;;;;;;;;;;5049374;28;20098;-60
2021/09/20 07:57:35;;;;;;;26.35;12.55;;;;;;;;;;5047568;28;20900;-61
2021/09/20 08:00:01;;;;;;;22.10;11.65;;;;;;;;;;5048986;28;20017;-61
2021/09/20 08:02:26;;;;;;;17.38;11.32;;;;;;;;;;5060422;28;20032;-62
2021/09/20 08:04:51;;;;;;;20.60;12.93;;;;;;;;;;5050196;28;20021;-61
2021/09/20 08:07:16;;;;;;;17.17;12.35;;;;;;;;;;5048818;28;20243;-61
2021/09/20 08:09:41;;;;;;;18.02;12.27;;;;;;;;;;5049358;28;20017;-61
2021/09/20 08:12:07;;;;;;;21.02;13.20;;;;;;;;;;5053592;28;20043;-60
2021/09/20 08:14:32;;;;;;;20.60;14.23;;;;;;;;;;5049222;28;20092;-61
2021/09/20 08:16:57;;;;;;;21.90;13.85;;;;;;;;;;5049001;28;20021;-61
2021/09/20 08:19:22;;;;;;;22.25;14.20;;;;;;;;;;5049122;28;20447;-61
2021/09/20 08:21:48;;;;;;;24.15;14.65;;;;;;;;;;5048608;28;20092;-61
2021/09/20 08:24:13;;;;;;;22.90;14.63;;;;;;;;;;5058542;28;20047;-61
2021/09/20 08:26:39;;;;;;;19.17;12.38;;;;;;;;;;5054875;28;20021;-61
2021/09/20 08:29:04;;;;;;;20.73;12.57;;;;;;;;;;5048826;28;20017;-61
2021/09/20 08:31:29;;;;;;;20.35;11.88;;;;;;;;;;5064345;28;20086;-61
2021/09/20 08:33:54;;;;;;;19.67;13.63;;;;;;;;;;5054293;28;20028;-60
2021/09/20 08:36:19;;;;;;;20.48;12.82;;;;;;;;;;5048528;28;20017;-62
2021/09/20 08:38:45;;;;;;;21.88;13.73;;;;;;;;;;5049122;28;20028;-61
2021/09/20 08:41:10;;;;;;;18.85;12.43;;;;;;;;;;5048420;28;20021;-62
2021/09/20 08:43:36;;;;;;;19.88;12.05;;;;;;;;;;5054869;28;20044;-61
2021/09/20 08:46:03;;;;;;;18.38;12.50;;;;;;;;;;5063032;28;20017;-61
2021/09/20 08:48:29;;;;;;;19.83;13.77;;;;;;;;;;5048310;28;20232;-61
2021/09/20 08:50:54;;;;;;;22.27;14.35;;;;;;;;;;5061371;28;20041;-62
2021/09/20 08:53:20;;;;;;;19.98;13.85;;;;;;;;;;5065829;28;20037;-62
2021/09/20 08:55:45;;;;;;;22.17;15.27;;;;;;;;;;5067359;28;20396;-61
2021/09/20 08:58:10;;;;;;;18.92;12.07;;;;;;;;;;5067653;28;20028;-61
2021/09/20 09:00:35;;;;;;;15.30;11.30;;;;;;;;;;5066929;28;20488;-61
2021/09/20 09:03:02;;;;;;;18.95;13.43;;;;;;;;;;5051647;28;20480;-61
2021/09/20 09:05:28;;;;;;;18.70;13.23;;;;;;;;;;5063735;28;20103;-62
2021/09/20 09:07:55;;;;;;;21.75;16.15;;;;;;;;;;5071251;28;20107;-62
2021/09/20 09:10:21;;;;;;;20.27;15.18;;;;;;;;;;5071277;28;20154;-61
2021/09/20 09:12:48;;;;;;;22.08;14.02;;;;;;;;;;5063476;28;20044;-62
2021/09/20 09:15:15;;;;;;;20.13;15.05;;;;;;;;;;5055167;28;20383;-61
2021/09/20 09:17:42;;;;;;;19.42;13.35;;;;;;;;;;5071166;28;20021;-62
2021/09/20 09:20:12;;;;;;;21.38;15.70;;;;;;;;;;5070586;28;20039;-60
2021/09/20 09:22:38;;;;;;;19.55;13.23;;;;;;;;;;5070887;28;20537;-61
2021/09/20 09:25:04;;;;;;;18.52;12.65;;;;;;;;;;5070101;28;20530;-61
2021/09/20 09:27:30;;;;;;;19.77;13.40;;;;;;;;;;5058014;28;20342;-62
2021/09/20 09:30:05;;;;;;;18.00;11.75;;;;;;;;;;5060466;28;20637;-61
2021/09/20 09:32:30;;;;;;;14.60;11.38;;;;;;;;;;5064371;28;20035;-61
2021/09/20 09:34:57;;;;;;;15.98;10.65;;;;;;;;;;5051701;28;20112;-61
2021/09/20 09:37:22;;;;;;;17.45;10.85;;;;;;;;;;5060495;28;20058;-61
2021/09/20 09:39:47;;;;;;;14.18;11.18;;;;;;;;;;5070951;28;20150;-61
2021/09/20 09:42:23;;;;;;;13.27;9.10;;;;;;;;;;5070582;28;20030;-61
2021/09/20 09:44:50;;;;;;;11.65;9.05;;;;;;;;;;5070568;28;20036;-61
2021/09/20 09:47:29;;;;;;;15.00;9.07;;;;;;;;;;5062785;28;20064;-61
2021/09/20 09:50:12;;;;;;;13.27;9.35;;;;;;;;;;5051037;28;20049;-61
2021/09/20 09:52:38;;;;;;;10.88;7.75;;;;;;;;;;5050883;28;20413;-61
2021/09/20 09:55:04;;;;;;;10.15;7.28;;;;;;;;;;5053356;28;20027;-60
2021/09/20 09:57:30;;;;;;;10.63;7.63;;;;;;;;;;5055056;28;20082;-61
2021/09/20 09:59:56;;;;;;;11.75;9.07;;;;;;;;;;5054343;28;20398;-61
2021/09/20 10:02:25;;;;;;;10.52;8.55;;;;;;;;;;5058376;28;20056;-61
2021/09/20 10:04:51;;;;;;;10.48;8.07;;;;;;;;;;5059559;28;20490;-61
2021/09/20 10:07:24;;;;;;;11.43;9.23;;;;;;;;;;5051072;28;20024;-61
2021/09/20 10:09:49;;;;;;;13.25;9.82;;;;;;;;;;5050678;28;20021;-61
2021/09/20 10:12:15;;;;;;;12.90;9.18;;;;;;;;;;5052126;28;20443;-61
2021/09/20 10:14:40;;;;;;;12.25;8.23;;;;;;;;;;5050547;28;20115;-62
2021/09/20 10:17:06;;;;;;;11.13;8.43;;;;;;;;;;5051257;28;20565;-62
2021/09/20 10:19:32;;;;;;;12.25;9.57;;;;;;;;;;5059893;28;20093;-61
2021/09/20 10:21:57;;;;;;;13.18;10.05;;;;;;;;;;5049810;28;20033;-61
2021/09/20 10:24:23;;;;;;;12.77;10.10;;;;;;;;;;5053328;28;20013;-61
2021/09/20 10:26:49;;;;;;;15.57;10.18;;;;;;;;;;5050255;28;20029;-61
2021/09/20 10:29:16;;;;;;;13.18;9.48;;;;;;;;;;5053930;28;20025;-62
2021/09/20 10:31:42;;;;;;;17.98;11.38;;;;;;;;;;5052897;28;20025;-61
2021/09/20 10:34:29;;;;;;;13.73;10.10;;;;;;;;;;5055736;28;20064;-60
2021/09/20 10:37:02;;;;;;;13.60;9.07;;;;;;;;;;5050666;28;20094;-61
2021/09/20 10:39:46;;;;;;;12.60;9.43;;;;;;;;;;5050393;28;20112;-60
2021/09/20 10:42:31;;;;;;;13.48;10.77;;;;;;;;;;5049797;28;20067;-61
2021/09/20 10:44:56;;;;;;;16.05;9.43;;;;;;;;;;5056464;28;20048;-61
2021/09/20 10:47:21;;;;;;;13.13;8.70;;;;;;;;;;5050138;28;20060;-60
2021/09/20 10:49:50;;;;;;;12.05;9.45;;;;;;;;;;5049623;28;20081;-61
2021/09/20 10:52:16;;;;;;;13.63;10.23;;;;;;;;;;5050796;28;20072;-60
2021/09/20 10:55:01;;;;;;;13.77;9.65;;;;;;;;;;5056075;28;20443;-62
2021/09/20 10:57:26;;;;;;;11.52;8.70;;;;;;;;;;5051732;28;20048;-59
2021/09/20 10:59:51;;;;;;;11.90;8.38;;;;;;;;;;5049513;28;20167;-60
2021/09/20 11:02:22;;;;;;;13.37;9.43;;;;;;;;;;5055177;28;20368;-61
2021/09/20 11:04:48;;;;;;;10.30;8.18;;;;;;;;;;5055020;28;20255;-59
2021/09/20 11:07:18;;;;;;;11.65;9.38;;;;;;;;;;5058743;28;20031;-61
2021/09/20 11:09:43;;;;;;;12.60;9.25;;;;;;;;;;5067368;28;20025;-60
2021/09/20 11:12:11;;;;;;;14.15;8.80;;;;;;;;;;5056226;28;20032;-60
2021/09/20 11:14:45;;;;;;;10.60;7.97;;;;;;;;;;5060941;28;20017;-60
2021/09/20 11:17:21;;;;;;;11.48;8.07;;;;;;;;;;5047650;28;20068;-61
2021/09/20 11:19:47;;;;;;;11.15;8.18;;;;;;;;;;5059073;28;20059;-61
2021/09/20 11:22:15;;;;;;;10.50;7.65;;;;;;;;;;5051228;28;20461;-61
2021/09/20 11:24:46;;;;;;;12.65;7.93;;;;;;;;;;5052649;28;20028;-61
2021/09/20 11:27:30;;;;;;;9.57;6.88;;;;;;;;;;5066331;28;20028;-60
2021/09/20 11:30:04;;;;;;;9.43;7.40;;;;;;;;;;5061390;28;20028;-60
2021/09/20 11:32:29;;;;;;;10.68;7.55;;;;;;;;;;5051870;28;20045;-61
2021/09/20 11:34:56;;;;;;;11.45;7.53;;;;;;;;;;5052025;28;20518;-61
2021/09/20 11:37:26;;;;;;;11.32;7.97;;;;;;;;;;5050069;28;20017;-61
2021/09/20 11:39:53;;;;;;;11.18;8.32;;;;;;;;;;5054003;28;20028;-61
2021/09/20 11:42:20;;;;;;;12.48;8.52;;;;;;;;;;5053184;28;20017;-61
2021/09/20 11:44:48;;;;;;;11.95;9.38;;;;;;;;;;5055151;28;20095;-61
2021/09/20 11:47:14;;;;;;;10.32;7.68;;;;;;;;;;5049945;28;20472;-61
2021/09/20 11:49:40;;;;;;;9.88;7.35;;;;;;;;;;5052929;28;20021;-61
2021/09/20 11:52:05;;;;;;;10.60;7.15;;;;;;;;;;5060381;28;20444;-61
2021/09/20 11:54:33;;;;;;;10.25;7.30;;;;;;;;;;5053236;28;20070;-59
2021/09/20 11:57:20;;;;;;;10.02;7.63;;;;;;;;;;5058501;28;20021;-60
2021/09/20 11:59:45;;;;;;;11.55;7.20;;;;;;;;;;5066210;28;20025;-60
2021/09/20 12:02:46;;;;;;;11.27;7.40;;;;;;;;;;5051434;28;20375;-60
2021/09/20 12:05:22;;;;;;;10.85;7.82;;;;;;;;;;5059732;28;20479;-61
2021/09/20 12:07:51;;;;;;;14.05;8.57;;;;;;;;;;5048274;28;20044;-61
2021/09/20 12:10:18;;;;;;;12.77;7.65;;;;;;;;;;5050632;28;20136;-60
2021/09/20 12:12:47;;;;;;;10.75;7.30;;;;;;;;;;5047494;28;20045;-61
2021/09/20 12:15:13;;;;;;;13.18;8.07;;;;;;;;;;5060331;28;20490;-61
2021/09/20 12:17:55;;;;;;;9.52;7.38;;;;;;;;;;5048625;28;20044;-61
2021/09/20 12:20:22;;;;;;;12.10;8.02;;;;;;;;;;5046248;28;20033;-61
2021/09/20 12:22:49;;;;;;;13.00;7.78;;;;;;;;;;5051436;28;20494;-60
2021/09/20 12:25:21;;;;;;;11.07;7.70;;;;;;;;;;5045940;28;20047;-61
2021/09/20 12:27:47;;;;;;;8.95;7.28;;;;;;;;;;5049359;28;20037;-60
2021/09/20 12:30:13;;;;;;;10.90;7.63;;;;;;;;;;5051648;28;20443;-60
2021/09/20 12:32:39;;;;;;;11.43;8.02;;;;;;;;;;5048417;28;20064;-60
2021/09/20 12:35:05;;;;;;;15.63;8.07;;;;;;;;;;5055661;28;20021;-61
2021/09/20 12:37:30;;;;;;;11.18;7.60;;;;;;;;;;5053207;28;20389;-61
2021/09/20 12:40:13;;;;;;;9.68;7.20;;;;;;;;;;5051947;28;20392;-61
2021/09/20 12:42:38;;;;;;;10.55;7.53;;;;;;;;;;5054374;28;20033;-59
2021/09/20 12:45:13;;;;;;;14.48;8.50;;;;;;;;;;5060476;28;20375;-61
2021/09/20 12:47:38;;;;;;;14.40;7.20;;;;;;;;;;5058837;28;20039;-61
2021/09/20 12:50:10;;;;;;;11.85;8.10;;;;;;;;;;5053185;28;20017;-59
2021/09/20 12:52:41;;;;;;;14.32;9.27;;;;;;;;;;5051817;28;20045;-60
2021/09/20 12:55:07;;;;;;;11.98;8.95;;;;;;;;;;5057059;28;20025;-61
2021/09/20 12:57:33;;;;;;;11.05;8.43;;;;;;;;;;5055015;28;20021;-60
2021/09/20 13:00:09;;;;;;;15.70;9.10;;;;;;;;;;5064472;28;20134;-60
2021/09/20 13:02:37;;;;;;;12.43;9.50;;;;;;;;;;5053169;28;20036;-61
2021/09/20 13:05:03;;;;;;;15.43;9.07;;;;;;;;;;5067776;28;20012;-62
2021/09/20 13:07:28;;;;;;;12.95;8.55;;;;;;;;;;5059658;28;20376;-60
2021/09/20 13:09:59;;;;;;;12.38;8.48;;;;;;;;;;5070475;28;20024;-60
2021/09/20 13:12:35;;;;;;;12.88;8.55;;;;;;;;;;5071346;28;20081;-61
2021/09/20 13:15:01;;;;;;;16.42;9.43;;;;;;;;;;5052105;28;20048;-61
2021/09/20 13:17:40;;;;;;;13.60;9.43;;;;;;;;;;5052141;28;20064;-61
2021/09/20 13:20:05;;;;;;;12.40;8.23;;;;;;;;;;5066091;28;20476;-61
2021/09/20 13:22:33;;;;;;;12.60;8.77;;;;;;;;;;5070840;28;20092;-61
2021/09/20 13:25:17;;;;;;;16.05;9.32;;;;;;;;;;5071092;28;20379;-61
2021/09/20 13:27:42;;;;;;;10.57;8.45;;;;;;;;;;5066563;28;20029;-61
2021/09/20 13:30:07;;;;;;;12.20;8.85;;;;;;;;;;5051256;28;20045;-61
2021/09/20 13:32:32;;;;;;;14.50;9.70;;;;;;;;;;5053234;28;20291;-60
2021/09/20 13:34:57;;;;;;;12.27;9.50;;;;;;;;;;5053794;28;20020;-60
2021/09/20 13:37:23;;;;;;;11.88;9.15;;;;;;;;;;5053520;28;20258;-61
2021/09/20 13:39:48;;;;;;;13.33;8.27;;;;;;;;;;5052704;28;20099;-61
2021/09/20 13:42:13;;;;;;;10.87;7.77;;;;;;;;;;5057550;28;20739;-60
2021/09/20 13:44:38;;;;;;;12.63;9.03;;;;;;;;;;5057099;28;20339;-60
2021/09/20 13:47:04;;;;;;;10.95;7.85;;;;;;;;;;5064440;28;20275;-60
2021/09/20 13:49:29;;;;;;;14.37;8.60;;;;;;;;;;5055136;28;20087;-60
2021/09/20 13:51:54;;;;;;;10.90;8.00;;;;;;;;;;5059458;28;20311;-60
2021/09/20 13:54:19;;;;;;;9.80;7.50;;;;;;;;;;5056244;28;20729;-61
2021/09/20 13:56:44;;;;;;;10.83;8.60;;;;;;;;;;5062266;28;20028;-61
2021/09/20 13:59:09;;;;;;;12.15;8.45;;;;;;;;;;5054551;28;20286;-60
2021/09/20 14:01:35;;;;;;;10.53;8.43;;;;;;;;;;5055088;28;20021;-60
2021/09/20 14:04:00;;;;;;;9.85;8.00;;;;;;;;;;5055182;28;20275;-61
2021/09/20 14:06:25;;;;;;;11.45;8.15;;;;;;;;;;5055492;28;20416;-60
2021/09/20 14:08:50;;;;;;;10.90;8.17;;;;;;;;;;5055398;28;20108;-60
2021/09/20 14:11:16;;;;;;;13.77;8.30;;;;;;;;;;5055283;28;20274;-61
2021/09/20 14:13:41;;;;;;;11.65;7.82;;;;;;;;;;5061923;28;20036;-60
2021/09/20 14:16:07;;;;;;;11.70;8.23;;;;;;;;;;5051552;28;20028;-61
2021/09/20 14:18:32;;;;;;;11.05;8.30;;;;;;;;;;5061668;28;20107;-60
2021/09/20 14:20:57;;;;;;;10.43;7.95;;;;;;;;;;5059441;28;20019;-60
2021/09/20 14:23:22;;;;;;;11.68;7.82;;;;;;;;;;5055794;28;20107;-60